createdAt,value
2022-12-17T00:01:52.400Z,101576.63
2022-12-17T00:04:37.552Z,101578.38
2022-12-17T00:10:32.191Z,101574.25
2022-12-17T00:13:17.280Z,101584.38
2022-12-17T00:16:02.332Z,101588.75
2022-12-17T00:18:47.648Z,101591.13
2022-12-17T00:21:32.499Z,101599.09
2022-12-17T00:24:17.424Z,101602.00
2022-12-17T00:27:28.292Z,101606.50
2022-12-17T00:30:13.137Z,101607.00
2022-12-17T00:32:58.322Z,101613.03
2022-12-17T00:35:43.677Z,101603.78
2022-12-17T00:38:36.871Z,101619.28
2022-12-17T00:41:22.467Z,101618.84
2022-12-17T00:44:07.424Z,101619.28
2022-12-17T00:46:52.593Z,101625.28
2022-12-17T00:49:37.942Z,101627.38
2022-12-17T00:52:23.212Z,101628.19
2022-12-17T00:55:08.230Z,101622.97
2022-12-17T00:57:53.741Z,101607.91
2022-12-17T01:00:38.847Z,101623.13
2022-12-17T01:03:30.224Z,101632.06
2022-12-17T01:06:19.454Z,101631.63
2022-12-17T01:09:04.653Z,101626.09
2022-12-17T01:11:49.859Z,101626.88
2022-12-17T01:14:35.013Z,101631.84
2022-12-17T01:17:20.726Z,101634.97
2022-12-17T01:20:09.524Z,101633.47
2022-12-17T01:22:56.526Z,101645.47
2022-12-17T01:25:41.619Z,101651.09
2022-12-17T01:28:26.787Z,101665.84
2022-12-17T01:31:12.259Z,101675.94
2022-12-17T01:33:57.626Z,101669.09
2022-12-17T01:36:44.803Z,101670.38
2022-12-17T01:39:30.122Z,101685.28
2022-12-17T01:42:15.325Z,101687.50
2022-12-17T01:45:00.347Z,101684.34
2022-12-17T01:47:48.423Z,101680.25
2022-12-17T01:50:36.137Z,101680.41
2022-12-17T01:53:24.391Z,101684.41
2022-12-17T01:56:10.592Z,101684.56
2022-12-17T01:58:59.309Z,101677.94
2022-12-17T02:01:45.313Z,101677.84
2022-12-17T02:04:30.835Z,101684.13
2022-12-17T02:07:38.263Z,101696.44
2022-12-17T02:10:52.496Z,101698.00
2022-12-17T02:13:49.062Z,101703.22
2022-12-17T02:16:43.075Z,101696.44
2022-12-17T02:19:56.394Z,101698.91
2022-12-17T02:23:00.596Z,101694.16
2022-12-17T02:26:01.229Z,101702.38
2022-12-17T02:28:46.509Z,101704.81
2022-12-17T02:31:33.795Z,101710.91
2022-12-17T02:34:21.957Z,101703.25
2022-12-17T02:37:11.698Z,101711.31
2022-12-17T02:39:56.893Z,101716.22
2022-12-17T02:42:44.972Z,101712.31
2022-12-17T02:45:31.044Z,101714.09
2022-12-17T02:48:16.878Z,101718.03
2022-12-17T02:51:02.040Z,101725.50
2022-12-17T02:53:47.527Z,101723.72
2022-12-17T02:56:32.762Z,101720.22
2022-12-17T02:59:18.190Z,101721.41
2022-12-17T03:02:04.107Z,101723.97
2022-12-17T03:04:50.186Z,101715.69
2022-12-17T03:07:35.189Z,101728.03
2022-12-17T03:10:25.979Z,101735.16
2022-12-17T03:13:13.089Z,101734.63
2022-12-17T03:15:58.580Z,101731.75
2022-12-17T03:18:43.940Z,101738.06
2022-12-17T03:21:28.933Z,101742.75
2022-12-17T03:24:14.225Z,101736.47
2022-12-17T03:26:59.286Z,101741.94
2022-12-17T03:29:44.886Z,101739.94
2022-12-17T03:32:29.799Z,101743.63
2022-12-17T03:35:18.150Z,101740.84
2022-12-17T03:38:03.423Z,101738.56
2022-12-17T03:40:48.496Z,101731.34
2022-12-17T03:43:33.656Z,101731.31
2022-12-17T03:46:18.900Z,101730.97
2022-12-17T03:49:04.169Z,101722.69
2022-12-17T03:51:49.555Z,101732.34
2022-12-17T03:54:34.577Z,101727.69
2022-12-17T03:57:19.990Z,101739.69
2022-12-17T04:00:05.293Z,101749.25
2022-12-17T04:02:57.913Z,101740.59
2022-12-17T04:05:43.125Z,101746.25
2022-12-17T04:08:28.464Z,101748.78
2022-12-17T04:11:16.487Z,101751.44
2022-12-17T04:14:01.633Z,101755.91
2022-12-17T04:16:46.810Z,101751.09
2022-12-17T04:19:31.962Z,101756.22
2022-12-17T04:22:17.158Z,101753.22
2022-12-17T04:25:02.596Z,101752.59
2022-12-17T04:27:48.013Z,101758.16
2022-12-17T04:30:33.219Z,101758.16
2022-12-17T04:33:18.514Z,101760.38
2022-12-17T04:36:03.726Z,101752.38
2022-12-17T04:38:48.894Z,101762.97
2022-12-17T04:41:34.179Z,101761.72
2022-12-17T04:44:19.460Z,101765.69
2022-12-17T04:47:04.660Z,101762.69
2022-12-17T04:50:15.241Z,101762.88
2022-12-17T04:53:00.270Z,101776.50
2022-12-17T04:55:45.789Z,101772.97
2022-12-17T04:58:31.089Z,101773.16
2022-12-17T05:01:16.138Z,101775.44
2022-12-17T05:04:01.459Z,101775.28
2022-12-17T05:06:47.230Z,101777.63
2022-12-17T05:09:35.339Z,101782.16
2022-12-17T05:12:20.395Z,101784.47
2022-12-17T05:15:05.584Z,101774.28
2022-12-17T05:17:50.938Z,101771.00
2022-12-17T05:20:45.500Z,101787.53
2022-12-17T05:23:30.797Z,101794.00
2022-12-17T05:26:24.747Z,101796.13
2022-12-17T05:29:15.591Z,101796.28
2022-12-17T05:32:04.086Z,101799.13
2022-12-17T05:34:49.283Z,101810.22
2022-12-17T05:37:34.318Z,101824.22
2022-12-17T05:40:19.453Z,101824.47
2022-12-17T05:43:21.021Z,101825.41
2022-12-17T05:46:07.140Z,101829.88
2022-12-17T05:48:53.320Z,101831.38
2022-12-17T05:51:39.341Z,101836.16
2022-12-17T05:54:25.144Z,101823.31
2022-12-17T06:00:19.630Z,101829.22
2022-12-17T06:03:05.134Z,101823.28
2022-12-17T06:05:50.879Z,101831.63
2022-12-17T06:08:49.702Z,101815.59
2022-12-17T06:11:35.041Z,101838.66
2022-12-17T06:14:38.511Z,101849.88
2022-12-17T06:17:24.141Z,101850.50
2022-12-17T06:20:09.605Z,101851.34
2022-12-17T06:22:54.651Z,101861.53
2022-12-17T06:25:39.820Z,101866.59
2022-12-17T06:28:24.647Z,101871.81
2022-12-17T06:31:11.541Z,101868.53
2022-12-17T06:33:57.129Z,101871.06
2022-12-17T06:36:42.283Z,101878.03
2022-12-17T06:39:27.941Z,101876.41
2022-12-17T06:42:13.467Z,101879.06
2022-12-17T06:51:17.008Z,101883.56
2022-12-17T06:54:02.188Z,101896.53
2022-12-17T06:56:47.144Z,101885.66
2022-12-17T06:59:32.173Z,101886.69
2022-12-17T07:02:17.507Z,101896.81
2022-12-17T07:05:02.951Z,101902.94
2022-12-17T07:07:51.196Z,101905.47
2022-12-17T07:11:03.498Z,101919.97
2022-12-17T07:13:48.605Z,101918.44
2022-12-17T07:16:33.959Z,101921.84
2022-12-17T07:19:23.870Z,101921.69
2022-12-17T07:22:11.893Z,101923.28
2022-12-17T07:24:56.748Z,101927.53
2022-12-17T07:27:41.993Z,101933.78
2022-12-17T07:30:28.016Z,101936.97
2022-12-17T07:33:25.106Z,101947.53
2022-12-17T07:39:41.772Z,101948.13
2022-12-17T07:42:27.032Z,101949.19
2022-12-17T07:45:12.301Z,101949.16
2022-12-17T07:47:59.509Z,101951.28
2022-12-17T07:50:44.835Z,101944.72
2022-12-17T07:53:30.297Z,101950.97
2022-12-17T07:56:15.665Z,101960.94
2022-12-17T07:59:00.936Z,101969.59
2022-12-17T08:01:45.957Z,101963.63
2022-12-17T08:04:31.338Z,101970.03
2022-12-17T08:07:16.273Z,101970.19
2022-12-17T08:10:01.451Z,101976.00
2022-12-17T08:12:46.675Z,101981.97
2022-12-17T08:15:32.074Z,101980.50
2022-12-17T08:18:26.195Z,101986.34
2022-12-17T08:21:12.425Z,101983.63
2022-12-17T08:23:57.677Z,101992.41
2022-12-17T08:26:47.505Z,101999.59
2022-12-17T08:29:33.480Z,102007.94
2022-12-17T08:32:18.917Z,102000.78
2022-12-17T08:35:04.262Z,102002.13
2022-12-17T08:37:50.106Z,102007.19
2022-12-17T08:40:35.731Z,102000.19
2022-12-17T08:43:21.043Z,102013.91
2022-12-17T08:46:07.798Z,102019.88
2022-12-17T08:48:53.026Z,102016.31
2022-12-17T08:51:40.232Z,102021.34
2022-12-17T08:54:25.320Z,102018.78
2022-12-17T08:57:10.648Z,102017.28
2022-12-17T08:59:56.231Z,102021.66
2022-12-17T09:02:41.671Z,102024.38
2022-12-17T09:05:52.862Z,102023.16
2022-12-17T09:08:37.842Z,102023.47
2022-12-17T09:11:23.062Z,102027.59
2022-12-17T09:14:08.271Z,102021.22
2022-12-17T09:17:18.532Z,102021.06
2022-12-17T09:20:03.737Z,102022.84
2022-12-17T09:22:49.034Z,102029.44
2022-12-17T09:25:34.620Z,102025.84
2022-12-17T09:28:21.030Z,102027.03
2022-12-17T09:37:50.680Z,102036.31
2022-12-17T09:40:41.091Z,102032.72
2022-12-17T09:43:44.723Z,102033.91
2022-12-17T09:46:36.283Z,102033.31
2022-12-17T09:49:46.733Z,102030.31
2022-12-17T09:52:37.859Z,102046.72
2022-12-17T09:56:04.328Z,102044.66
2022-12-17T09:58:53.276Z,102040.75
2022-12-17T10:05:26.073Z,101999.28
2022-12-17T10:08:12.084Z,102040.91
2022-12-17T10:11:03.396Z,102046.28
2022-12-17T10:13:52.112Z,102047.47
2022-12-17T10:16:49.445Z,102041.66
2022-12-17T10:19:48.932Z,102053.91
2022-12-17T10:22:51.299Z,102062.88
2022-12-17T10:26:15.370Z,102069.72
2022-12-17T10:29:00.592Z,102058.50
2022-12-17T10:31:48.553Z,102072.38
2022-12-17T10:34:36.778Z,102069.44
2022-12-17T10:37:42.691Z,102073.47
2022-12-17T10:40:48.112Z,102064.63
2022-12-17T10:43:51.821Z,102063.13
2022-12-17T10:46:51.257Z,102062.84
2022-12-17T10:49:42.995Z,102061.53
2022-12-17T10:52:48.570Z,102056.59
2022-12-17T10:55:47.265Z,102056.09
2022-12-17T10:58:50.404Z,102057.75
2022-12-17T11:01:44.934Z,102061.06
2022-12-17T11:04:48.485Z,102062.81
2022-12-17T11:07:42.712Z,102063.72
2022-12-17T11:10:41.115Z,102063.16
2022-12-17T11:13:34.863Z,102068.63
2022-12-17T11:16:26.475Z,102077.75
2022-12-17T11:19:42.339Z,102076.84
2022-12-17T11:22:41.261Z,102073.88
2022-12-17T11:25:40.838Z,102069.59
2022-12-17T11:28:37.495Z,102085.09
2022-12-17T11:31:48.688Z,102081.59
2022-12-17T11:35:03.578Z,102081.63
2022-12-17T11:38:00.676Z,102064.88
2022-12-17T11:44:32.343Z,102066.47
2022-12-17T11:48:09.183Z,102056.56
2022-12-17T11:51:10.764Z,102061.19
2022-12-17T11:54:18.752Z,102066.13
2022-12-17T12:00:25.104Z,102067.88
2022-12-17T12:03:38.219Z,102070.59
2022-12-17T12:06:36.786Z,102076.56
2022-12-17T12:09:51.719Z,102080.63
2022-12-17T12:12:58.194Z,102070.84
2022-12-17T12:16:04.506Z,102070.72
2022-12-17T12:19:27.547Z,102072.44
2022-12-17T12:22:47.708Z,102063.78
2022-12-17T12:26:21.870Z,102060.03
2022-12-17T12:29:20.397Z,102060.75
2022-12-17T12:32:37.852Z,102053.47
2022-12-17T12:35:26.662Z,102051.81
2022-12-17T12:38:12.845Z,102046.94
2022-12-17T12:41:12.114Z,102054.63
2022-12-17T12:44:02.396Z,102054.81
2022-12-17T12:47:00.067Z,102057.66
2022-12-17T12:49:46.672Z,102051.78
2022-12-17T12:53:22.532Z,102055.09
2022-12-17T12:56:15.648Z,102051.47
2022-12-17T13:02:12.738Z,102050.28
2022-12-17T13:05:16.430Z,102046.28
2022-12-17T13:07:43.025Z,102042.81
2022-12-17T13:10:28.303Z,102043.00
2022-12-17T13:12:55.229Z,102050.78
2022-12-17T13:15:48.094Z,102048.72
2022-12-17T13:18:17.345Z,102041.81
2022-12-17T13:20:43.963Z,102051.47
2022-12-17T13:23:33.021Z,102049.78
2022-12-17T13:26:17.002Z,102047.94
2022-12-17T13:29:24.405Z,102044.03
2022-12-17T13:32:23.863Z,102043.69
2022-12-17T13:35:10.291Z,102047.09
2022-12-17T13:38:02.327Z,102043.84
2022-12-17T13:41:13.477Z,102044.19
2022-12-17T13:43:43.726Z,102045.44
2022-12-17T13:46:30.452Z,102052.56
2022-12-17T13:49:00.205Z,102044.84
2022-12-17T13:51:29.911Z,102044.84
2022-12-17T13:54:04.516Z,102057.25
2022-12-17T13:56:35.587Z,102052.22
2022-12-17T13:59:09.193Z,102051.28
2022-12-17T14:01:45.824Z,102053.06
2022-12-17T14:04:21.512Z,102061.59
2022-12-17T14:06:48.657Z,102063.72
2022-12-17T14:09:26.559Z,102061.47
2022-12-17T14:12:11.809Z,102057.53
2022-12-17T14:14:41.575Z,102058.28
2022-12-17T14:17:20.964Z,102059.88
2022-12-17T14:20:01.463Z,102063.63
2022-12-17T14:22:54.272Z,102065.53
2022-12-17T14:25:24.235Z,102069.84
2022-12-17T14:27:58.802Z,102067.72
2022-12-17T14:30:46.322Z,102063.53
2022-12-17T14:33:28.573Z,102059.28
2022-12-17T14:36:00.757Z,102063.88
2022-12-17T14:38:38.040Z,102061.19
2022-12-17T14:41:31.373Z,102055.66
2022-12-17T14:44:00.203Z,102063.28
2022-12-17T14:46:31.820Z,102063.28
2022-12-17T14:49:00.804Z,102070.56
2022-12-17T14:51:36.887Z,102068.16
2022-12-17T14:54:29.981Z,102076.81
2022-12-17T14:56:59.341Z,102067.28
2022-12-17T14:59:37.952Z,102064.38
2022-12-17T15:02:26.771Z,102063.88
2022-12-17T15:05:04.521Z,102075.06
2022-12-17T15:07:32.083Z,102074.88
2022-12-17T15:10:11.615Z,102073.59
2022-12-17T15:12:39.720Z,102073.59
2022-12-17T15:15:06.881Z,102079.28
2022-12-17T15:17:33.496Z,102080.75
2022-12-17T15:20:00.157Z,102079.28
2022-12-17T15:22:26.943Z,102078.81
2022-12-17T15:24:53.549Z,102072.53
2022-12-17T15:27:20.289Z,102078.94
2022-12-17T15:29:46.955Z,102076.88
2022-12-17T15:32:38.742Z,102080.31
2022-12-17T15:35:05.836Z,102075.06
2022-12-17T15:37:32.498Z,102082.84
2022-12-17T15:39:59.084Z,102077.47
2022-12-17T15:42:44.498Z,102079.28
2022-12-17T15:45:11.095Z,102077.19
2022-12-17T15:48:02.759Z,102076.41
2022-12-17T15:50:36.668Z,102073.59
2022-12-17T15:53:03.532Z,102082.25
2022-12-17T15:56:01.637Z,102082.53
2022-12-17T15:58:28.618Z,102081.78
2022-12-17T16:00:55.254Z,102078.66
2022-12-17T16:03:22.218Z,102076.88
2022-12-17T16:05:48.891Z,102074.03
2022-12-17T16:08:15.603Z,102072.25
2022-12-17T16:10:42.354Z,102073.56
2022-12-17T16:13:08.968Z,102073.16
2022-12-17T16:16:03.396Z,102077.47
2022-12-17T16:18:41.190Z,102078.97
2022-12-17T16:21:20.368Z,102090.00
2022-12-17T16:23:47.073Z,102086.44
2022-12-17T16:26:13.753Z,102095.97
2022-12-17T16:28:58.694Z,102091.34
2022-12-17T16:31:25.652Z,102090.88
2022-12-17T16:33:52.389Z,102109.38
2022-12-17T16:36:21.099Z,102114.00
2022-12-17T16:38:52.731Z,102115.78
2022-12-17T16:41:21.535Z,102125.28
2022-12-17T16:43:48.758Z,102127.25
2022-12-17T16:46:36.026Z,102127.97
2022-12-17T16:49:08.736Z,102128.78
2022-12-17T16:51:35.679Z,102122.53
2022-12-17T16:54:26.029Z,102126.41
2022-12-17T16:56:53.741Z,102123.72
2022-12-17T16:59:22.039Z,102122.41
2022-12-17T17:01:50.235Z,102134.38
2022-12-17T17:04:20.643Z,102127.25
2022-12-17T17:06:56.697Z,102138.44
2022-12-17T17:09:24.787Z,102141.72
2022-12-17T17:11:54.365Z,102140.75
2022-12-17T17:14:20.989Z,102138.13
2022-12-17T17:16:47.559Z,102145.88
2022-12-17T17:19:15.211Z,102149.56
2022-12-17T17:21:47.779Z,102150.03
2022-12-17T17:24:21.157Z,102164.09
2022-12-17T17:26:49.597Z,102154.94
2022-12-17T17:29:16.940Z,102153.47
2022-12-17T17:34:30.160Z,102158.09
2022-12-17T17:36:56.788Z,102160.00
2022-12-17T17:39:23.407Z,102160.47
2022-12-17T17:41:50.002Z,102156.50
2022-12-17T17:44:16.638Z,102159.94
2022-12-17T17:46:43.480Z,102161.88
2022-12-17T17:49:10.654Z,102163.22
2022-12-17T17:54:28.816Z,102165.00
2022-12-17T17:56:55.686Z,102174.47
2022-12-17T17:59:29.540Z,102185.75
2022-12-17T18:01:59.510Z,102185.28
2022-12-17T18:04:26.298Z,102183.66
2022-12-17T18:07:23.779Z,102178.78
2022-12-17T18:09:39.959Z,102175.56
2022-12-17T18:12:26.042Z,102165.19
2022-12-17T18:15:13.297Z,102183.31
2022-12-17T18:17:39.460Z,102181.53
2022-12-17T18:20:06.648Z,102172.78
2022-12-17T18:22:33.287Z,102172.34
2022-12-17T18:24:59.828Z,102161.88
2022-12-17T18:27:26.349Z,102167.78
2022-12-17T18:29:55.948Z,102172.28
2022-12-17T18:32:47.590Z,102176.06
2022-12-17T18:35:15.042Z,102180.59
2022-12-17T18:37:41.773Z,102177.19
2022-12-17T18:40:09.153Z,102188.38
2022-12-17T18:42:54.534Z,102179.41
2022-12-17T18:45:21.161Z,102187.25
2022-12-17T18:47:47.915Z,102196.00
2022-12-17T18:50:14.510Z,102196.56
2022-12-17T18:52:41.068Z,102191.81
2022-12-17T18:55:10.960Z,102195.50
2022-12-17T18:57:37.632Z,102188.31
2022-12-17T19:00:05.239Z,102187.03
2022-12-17T19:02:32.061Z,102188.06
2022-12-17T19:05:00.089Z,102183.72
2022-12-17T19:07:26.764Z,102178.31
2022-12-17T19:09:53.471Z,102189.09
2022-12-17T19:12:20.070Z,102188.31
2022-12-17T19:14:47.454Z,102188.72
2022-12-17T19:17:14.116Z,102188.66
2022-12-17T19:19:40.637Z,102191.16
2022-12-17T19:22:07.227Z,102189.22
2022-12-17T19:24:33.861Z,102203.41
2022-12-17T19:27:03.462Z,102211.09
2022-12-17T19:29:30.191Z,102208.06
2022-12-17T19:31:56.842Z,102208.72
2022-12-17T19:34:23.516Z,102202.84
2022-12-17T19:36:50.054Z,102215.91
2022-12-17T19:39:19.645Z,102217.84
2022-12-17T19:41:46.526Z,102221.94
2022-12-17T19:44:16.738Z,102217.44
2022-12-17T19:46:46.842Z,102215.34
2022-12-17T19:49:15.512Z,102222.28
2022-12-17T19:51:44.170Z,102219.31
2022-12-17T19:54:13.028Z,102213.72
2022-12-17T19:56:39.888Z,102206.31
2022-12-17T19:59:09.490Z,102207.38
2022-12-17T20:01:39.792Z,102212.00
2022-12-17T20:04:06.501Z,102214.50
2022-12-17T20:06:35.304Z,102214.03
2022-12-17T20:09:04.827Z,102223.69
2022-12-17T20:11:35.617Z,102228.16
2022-12-17T20:14:13.129Z,102228.41
2022-12-17T20:16:52.354Z,102228.63
2022-12-17T20:19:20.398Z,102236.94
2022-12-17T20:21:47.823Z,102219.69
2022-12-17T20:24:15.642Z,102227.25
2022-12-17T20:26:42.799Z,102224.78
2022-12-17T20:29:09.941Z,102222.25
2022-12-17T20:31:37.333Z,102237.06
2022-12-17T20:34:06.177Z,102234.97
2022-12-17T20:36:33.092Z,102234.31
2022-12-17T20:38:59.748Z,102240.91
2022-12-17T20:41:28.724Z,102245.06
2022-12-17T20:43:55.710Z,102249.38
2022-12-17T20:46:24.789Z,102251.41
2022-12-17T20:48:52.066Z,102257.06
2022-12-17T20:51:24.495Z,102256.09
2022-12-17T20:53:52.829Z,102264.81
2022-12-17T20:56:22.019Z,102258.84
2022-12-17T20:58:53.238Z,102254.09
2022-12-17T21:01:22.659Z,102246.50
2022-12-17T21:03:51.315Z,102244.34
2022-12-17T21:06:24.112Z,102247.16
2022-12-17T21:08:52.604Z,102244.47
2022-12-17T21:11:22.278Z,102254.38
2022-12-17T21:13:48.842Z,102249.34
2022-12-17T21:16:18.792Z,102253.13
2022-12-17T21:18:45.726Z,102259.97
2022-12-17T21:21:16.167Z,102266.13
2022-12-17T21:23:42.828Z,102259.91
2022-12-17T21:26:15.925Z,102256.13
2022-12-17T21:28:47.426Z,102250.97
2022-12-17T21:31:23.573Z,102258.06
2022-12-17T21:33:56.267Z,102253.78
2022-12-17T21:36:24.210Z,102248.22
2022-12-17T21:38:52.077Z,102251.63
2022-12-17T21:41:21.623Z,102253.50
2022-12-17T21:43:51.879Z,102259.75
2022-12-17T21:46:18.811Z,102259.44
2022-12-17T21:48:45.851Z,102255.59
2022-12-17T21:51:13.793Z,102273.91
2022-12-17T21:53:43.551Z,102270.44
2022-12-17T21:56:16.666Z,102276.56
2022-12-17T21:58:45.225Z,102279.28
2022-12-17T22:01:18.697Z,102281.38
2022-12-17T22:03:48.386Z,102287.44
2022-12-17T22:06:24.598Z,102285.22
2022-12-17T22:09:10.766Z,102286.31
2022-12-17T22:11:48.355Z,102287.97
2022-12-17T22:14:20.595Z,102286.72
2022-12-17T22:16:49.314Z,102293.00
2022-12-17T22:19:23.032Z,102260.13
2022-12-17T22:21:54.066Z,102292.13
2022-12-17T22:24:25.258Z,102295.44
2022-12-17T22:26:59.459Z,102290.00
2022-12-17T22:29:49.373Z,102296.50
2022-12-17T22:32:34.646Z,102295.22
2022-12-17T22:35:47.141Z,102294.31
2022-12-17T22:41:01.890Z,102288.50
2022-12-17T22:44:30.354Z,102287.44
2022-12-17T22:44:45.245Z,102282.03
2022-12-17T22:46:19.793Z,102288.16
2022-12-17T22:48:48.279Z,102292.75
2022-12-17T22:51:16.404Z,102297.97
2022-12-17T22:53:51.659Z,102295.03
2022-12-17T22:56:27.418Z,102302.78
2022-12-17T22:59:07.086Z,102294.78
2022-12-17T23:01:34.774Z,102292.19
2022-12-17T23:04:02.906Z,102289.28
2022-12-17T23:06:30.069Z,102288.91
2022-12-17T23:08:56.771Z,102293.78
2022-12-17T23:11:25.881Z,102301.69
2022-12-17T23:13:52.984Z,102289.91
2022-12-17T23:16:19.978Z,102297.28
2022-12-17T23:18:48.637Z,102298.88
2022-12-17T23:21:20.728Z,102288.00
2022-12-17T23:23:47.342Z,102285.66
2022-12-17T23:26:21.294Z,102289.09
2022-12-17T23:28:48.443Z,102277.75
2022-12-17T23:31:20.489Z,102285.66
2022-12-17T23:33:47.678Z,102294.69
2022-12-17T23:36:19.660Z,102301.81
2022-12-17T23:38:47.505Z,102306.16
2022-12-17T23:41:21.848Z,102303.06
2022-12-17T23:43:49.253Z,102302.53
2022-12-17T23:46:18.246Z,102301.63
2022-12-17T23:48:50.924Z,102308.78
2022-12-17T23:51:19.600Z,102299.63
2022-12-17T23:53:46.827Z,102307.06
2022-12-17T23:56:19.676Z,102298.03
2022-12-17T23:58:47.220Z,102286.16
